Terminal Aerodrome Forecast
Issued by NWS Pittsburgh, PA

Current Version | Previous Version | Graphics & Text | Print | Product List | Glossary On
Versions: 1 2 3 4 5 6 7 8 9 10 11 12 13 14 15 16 17 18 19 20 21 22 23 24 25 26
000
FTUS41 KPBZ 162300
TAFPIT
TAF
KPIT 162329Z 1700/1806 24010KT 6SM -SHRA BR BKN016 OVC025
     FM170400 24008KT 6SM BR OVC008
     FM171300 25011KT P6SM OVC015
     FM171500 26014G22KT P6SM BKN025
     FM180200 28010KT P6SM BKN035=

USA.gov is the U.S. government's official web portal to all federal, state and local government web resources and services.